Time;durP1;ratioP1;P1;durP2;ratioP2;P2;SDS_P1;SDS_P2;PMS_P1;PMS_P2;Temp;Humidity;BMP_temperature;BMP_pressure;BME280_temperature;BME280_humidity;BME280_pressure;Samples;Min_cycle;Max_cycle;Signal;HPM_P1;HPM_P2
2022/10/05 00:07:34;;;;;;;;;;;;;;;;;;;;;
2022/10/05 00:10:43;;;;;;;;;;;;;;;;;;;;;
2022/10/05 00:14:44;;;;;;;94.80;85.10;;;;;;;8.24;72.70;101037.52;109525;1264;23716;-83
2022/10/05 00:22:30;;;;;;;92.60;83.90;;;;;;;8.27;72.93;101040.94;109011;1270;21971;-84
2022/10/05 00:26:50;;;;;;;79.50;71.90;;;;;;;8.31;73.22;101039.29;108610;1277;21985;-83
2022/10/05 00:31:06;;;;;;;79.40;71.70;;;;;;;8.36;73.18;101041.98;108224;1283;23105;-85
2022/10/05 00:33:48;;;;;;;78.80;71.10;;;;;;;8.42;73.15;101033.23;108302;1283;23759;-84
2022/10/05 00:36:41;;;;;;;;;;;;;;;;;;;;;
2022/10/05 00:39:56;;;;;;;;;;;;;;;;;;;;;
2022/10/05 00:43:55;;;;;;;;;;;;;;;;;;;;;
2022/10/05 00:48:03;;;;;;;81.50;74.00;;;;;;;8.54;73.22;101010.29;110024;1257;23099;-84
2022/10/05 00:51:46;;;;;;;;;;;;;;;;;;;;;
2022/10/05 00:55:46;;;;;;;;;;;;;;;;;;;;;
2022/10/05 00:59:12;;;;;;;80.60;72.80;;;;;;;8.50;72.83;100995.81;108938;1273;23618;-81
2022/10/05 01:03:21;;;;;;;73.00;65.70;;;;;;;8.40;73.01;100990.05;108555;1276;23799;-82
2022/10/05 01:07:35;;;;;;;64.30;58.10;;;;;;;8.36;73.13;100989.09;108555;1279;22223;-82
2022/10/05 01:11:18;;;;;;;60.70;54.80;;;;;;;8.34;73.26;100991.56;108829;1276;21985;-83
2022/10/05 01:26:17;;;;;;;54.00;49.20;;;;;;;9.88;68.92;100991.00;108585;1275;548234;-81
2022/10/05 01:29:21;;;;;;;57.10;51.60;;;;;;;9.92;67.67;100984.35;108385;1251;3379878;-82
2022/10/05 01:32:42;;;;;;;48.70;44.00;;;;;;;9.39;69.04;100976.41;111015;1251;23984;-82
2022/10/05 01:36:46;;;;;;;55.00;49.80;;;;;;;9.10;70.11;100974.47;111568;1244;22412;-82
2022/10/05 01:40:39;;;;;;;54.10;49.00;;;;;;;8.94;70.70;100977.94;110971;1251;22183;-82
2022/10/05 01:43:55;;;;;;;55.20;49.90;;;;;;;8.81;71.47;100984.45;110190;1260;23063;-85
2022/10/05 01:47:04;;;;;;;47.70;43.40;;;;;;;8.78;71.60;100987.10;109833;1261;22868;-84
2022/10/05 01:49:39;;;;;;;;;;;;;;;8.74;71.64;100990.48;110055;1260;22413;-83
2022/10/05 01:53:02;;;;;;;40.50;36.60;;;;;;;8.59;71.77;100984.70;110088;1261;21981;-83
2022/10/05 01:56:06;;;;;;;31.70;28.50;;;;;;;8.48;71.98;100978.33;109442;1267;22782;-83
2022/10/05 01:59:02;;;;;;;39.10;35.10;;;;;;;8.36;72.10;100980.08;109403;1263;22032;-83
2022/10/05 02:02:17;;;;;;;43.70;39.40;;;;;;;8.28;72.15;100976.23;109633;1262;21981;-84
2022/10/05 02:05:11;;;;;;;28.40;23.00;;;;;;;8.21;72.49;100967.16;109912;1263;23637;-83
2022/10/05 02:09:00;;;;;;;21.70;17.80;;;;;;;8.12;72.88;100970.27;110287;1257;23011;-84
2022/10/05 02:12:18;;;;;;;23.50;19.20;;;;;;;8.06;73.03;100981.13;110273;1257;22006;-85
2022/10/05 02:15:28;;;;;;;21.10;18.40;;;;;;;8.08;73.29;100991.67;110280;1259;21996;-84
2022/10/05 02:18:37;;;;;;;19.10;17.20;;;;;;;8.14;73.39;100988.29;111165;1247;23681;-83
2022/10/05 02:21:11;;;;;;;20.20;15.80;;;;;;;8.22;73.46;100976.17;111175;1247;21966;-83
2022/10/05 02:24:01;;;;;;;24.20;16.50;;;;;;;8.24;73.39;100982.02;110830;1251;21984;-84
2022/10/05 02:26:42;;;;;;;24.70;14.70;;;;;;;8.28;73.49;100975.73;110883;1245;23702;-84
2022/10/05 02:29:25;;;;;;;17.10;14.60;;;;;;;8.31;73.42;100972.54;110965;1245;22962;-86
2022/10/05 02:32:49;;;;;;;;;;;;;;;;;;;;;
2022/10/05 02:38:58;;;;;;;18.60;14.60;;;;;;;8.18;73.58;100960.12;112039;1239;21964;-85
2022/10/05 02:42:16;;;;;;;20.00;13.80;;;;;;;8.16;73.76;100959.11;112502;1234;23088;-86
2022/10/05 02:45:55;;;;;;;;;;;;;;;;;;;;;
2022/10/05 02:50:05;;;;;;;15.80;13.80;;;;;;;8.18;74.12;100951.98;111571;1244;22213;-86
2022/10/05 02:53:47;;;;;;;16.20;13.70;;;;;;;8.21;74.21;100946.88;111368;1244;21955;-85
2022/10/05 02:57:17;;;;;;;16.20;13.30;;;;;;;8.26;74.37;100938.30;111615;1244;22837;-84
2022/10/05 03:00:21;;;;;;;18.50;13.30;;;;;;;8.34;74.19;100924.80;111227;1246;24290;-85
2022/10/05 03:04:42;;;;;;;16.10;13.10;;;;;;;8.35;74.38;100934.84;111197;1250;22781;-85
2022/10/05 03:09:14;;;;;;;;;;;;;;;;;;;;;
2022/10/05 03:13:23;;;;;;;16.80;13.90;;;;;;;8.32;74.12;100931.05;110312;1257;22920;-83
2022/10/05 03:16:38;;;;;;;19.70;14.10;;;;;;;8.33;74.32;100930.88;110409;1257;21969;-84
2022/10/05 03:19:59;;;;;;;;;;;;;;;;;;;;;
2022/10/05 03:24:16;;;;;;;17.90;12.80;;;;;;;8.32;74.61;100930.38;109941;1263;22004;-84
2022/10/05 03:28:20;;;;;;;;;;;;;;;;;;;;;
2022/10/05 03:32:18;;;;;;;;;;;;;;;;;;;;;
2022/10/05 03:41:07;;;;;;;19.70;14.90;;;;;;;8.66;74.61;100928.88;107510;1289;545705;-84
2022/10/05 03:44:56;;;;;;;17.60;14.80;;;;;;;8.67;74.61;100934.59;110420;1256;21979;-84
2022/10/05 03:48:57;;;;;;;;;;;;;;;;;;;;;
2022/10/05 03:53:15;;;;;;;;;;;;;;;;;;;;;
2022/10/05 03:57:45;;;;;;;;;;;;;;;;;;;;;
2022/10/05 04:01:45;;;;;;;19.80;17.80;;;;;;;8.70;74.49;100919.23;108650;1276;23040;-84
2022/10/05 04:05:26;;;;;;;;;;;;;;;;;;;;;
2022/10/05 04:09:13;;;;;;;23.90;21.00;;;;;;;8.72;74.32;100915.90;108436;1280;21997;-84
2022/10/05 04:12:55;;;;;;;;;;;;;;;;;;;;;
2022/10/05 04:16:53;;;;;;;;;;;;;;;;;;;;;
2022/10/05 04:20:52;;;;;;;;;;;;;;;;;;;;;
2022/10/05 04:24:56;;;;;;;;;;;;;;;;;;;;;
2022/10/05 04:28:35;;;;;;;29.50;26.40;;;;;;;8.80;74.43;100923.20;108796;1273;23105;-86
2022/10/05 04:32:58;;;;;;;27.50;24.70;;;;;;;8.84;74.42;100932.84;108818;1270;23693;-84
2022/10/05 04:36:14;;;;;;;27.90;25.10;;;;;;;8.88;74.41;100937.42;108466;1282;22000;-86
2022/10/05 04:39:39;;;;;;;29.80;24.90;;;;;;;8.94;74.37;100935.91;108733;1272;24199;-84
2022/10/05 04:43:44;;;;;;;;;;;;;;;;;;;;;
2022/10/05 04:47:38;;;;;;;46.20;38.00;;;;;;;9.00;74.18;100939.60;108924;1273;21986;-83
2022/10/05 04:50:56;;;;;;;51.50;46.50;;;;;;;8.98;74.00;100936.18;108694;1273;23707;-82
2022/10/05 04:54:02;;;;;;;72.50;65.90;;;;;;;8.94;73.97;100932.97;108723;1274;23169;-83
2022/10/05 04:57:17;;;;;;;61.50;56.20;;;;;;;8.87;73.92;100927.90;108641;1273;22603;-83
2022/10/05 05:00:24;;;;;;;43.80;39.70;;;;;;;8.78;73.95;100925.66;108713;1274;22576;-81
2022/10/05 05:04:16;;;;;;;38.40;34.90;;;;;;;8.71;74.14;100927.90;108656;1273;22062;-82
2022/10/05 05:07:43;;;;;;;31.00;27.80;;;;;;;8.67;74.28;100934.92;108736;1273;22001;-82
2022/10/05 05:11:16;;;;;;;43.50;39.50;;;;;;;8.64;74.25;100939.83;108883;1273;22107;-82
2022/10/05 05:14:41;;;;;;;49.40;44.80;;;;;;;8.62;74.35;100937.45;109125;1269;22058;-82
2022/10/05 05:17:34;;;;;;;36.60;33.20;;;;;;;8.60;74.43;100936.45;109480;1267;21986;-81
2022/10/05 05:20:51;;;;;;;;;;;;;;;8.61;74.45;100936.79;109447;1266;21981;-82
2022/10/05 05:24:33;;;;;;;34.00;30.50;;;;;;;8.52;74.65;100938.17;108623;1276;22030;-83
2022/10/05 05:27:41;;;;;;;23.90;20.50;;;;;;;8.54;74.70;100931.36;108687;1274;24559;-83
2022/10/05 05:30:45;;;;;;;23.20;19.80;;;;;;;8.60;74.95;100923.10;109185;1267;22000;-82
2022/10/05 05:33:30;;;;;;;21.40;18.50;;;;;;;8.70;75.00;100925.50;109422;1264;23023;-81
2022/10/05 05:36:24;;;;;;;29.70;20.20;;;;;;;8.76;74.87;100930.40;109745;1264;22008;-81
2022/10/05 05:39:21;;;;;;;23.10;18.80;;;;;;;8.77;74.78;100926.73;109949;1262;21971;-81
2022/10/05 05:42:19;;;;;;;22.40;18.30;;;;;;;8.77;74.53;100931.77;109776;1259;23023;-83
2022/10/05 05:45:26;;;;;;;23.00;19.10;;;;;;;8.75;74.52;100929.55;110239;1260;23009;-81
2022/10/05 05:48:12;;;;;;;23.20;17.20;;;;;;;8.76;74.61;100930.73;109937;1259;22690;-82
2022/10/05 05:51:32;;;;;;;17.70;15.60;;;;;;;8.77;74.59;100927.58;110242;1259;21988;-81
2022/10/05 05:54:14;;;;;;;24.60;18.00;;;;;;;8.76;74.68;100925.36;110332;1258;22494;-81
2022/10/05 05:57:13;;;;;;;21.40;16.80;;;;;;;8.78;74.68;100928.44;110229;1258;23751;-81
2022/10/05 06:00:23;;;;;;;19.50;15.90;;;;;;;8.79;74.77;100931.20;110334;1258;21989;-81
2022/10/05 06:03:30;;;;;;;16.50;14.90;;;;;;;8.81;74.76;100935.34;110060;1260;22411;-80
2022/10/05 06:06:08;;;;;;;18.50;16.40;;;;;;;8.87;74.99;100937.80;109142;1267;22021;-82
2022/10/05 06:08:50;;;;;;;20.80;17.00;;;;;;;8.96;75.02;100933.08;108940;1270;23722;-81
2022/10/05 06:11:55;;;;;;;17.60;15.70;;;;;;;9.09;75.15;100935.24;108929;1270;22017;-82
2022/10/05 06:15:44;;;;;;;19.40;15.30;;;;;;;9.22;75.18;100935.12;109201;1264;21981;-86
2022/10/05 06:19:15;;;;;;;23.30;16.10;;;;;;;9.36;75.30;100938.79;109560;1267;22092;-80
2022/10/05 06:22:22;;;;;;;22.80;15.80;;;;;;;9.55;75.38;100940.27;109329;1264;21987;-81
2022/10/05 06:26:02;;;;;;;20.80;15.80;;;;;;;9.71;75.27;100940.91;108895;1273;22528;-81
2022/10/05 06:29:14;;;;;;;23.30;15.20;;;;;;;9.88;75.08;100947.09;109478;1264;21988;-81
2022/10/05 06:33:14;;;;;;;25.00;17.40;;;;;;;10.04;74.77;100946.67;109010;1270;23702;-80
2022/10/05 06:37:21;;;;;;;30.10;22.90;;;;;;;10.21;74.49;100942.75;108437;1275;22674;-83
2022/10/05 06:41:35;;;;;;;36.90;32.30;;;;;;;10.32;73.82;100940.39;108270;1282;22034;-80
2022/10/05 06:44:26;;;;;;;;;;;;;;;;;;;;;
2022/10/05 06:49:39;;;;;;;;;;;;;;;;;;;;;
2022/10/05 06:54:18;;;;;;;34.80;30.30;;;;;;;10.58;73.46;100947.85;108836;1272;23689;-81
2022/10/05 06:58:15;;;;;;;28.50;25.90;;;;;;;10.73;73.30;100948.30;108576;1273;21999;-80
2022/10/05 07:02:33;;;;;;;27.20;23.70;;;;;;;10.90;73.04;100951.80;108935;1270;22452;-79
2022/10/05 07:06:40;;;;;;;30.70;23.60;;;;;;;11.07;72.69;100953.90;108887;1274;21996;-79
2022/10/05 07:14:05;;;;;;;40.80;36.50;;;;;;;11.61;72.52;100949.62;108299;1280;24313;-80
2022/10/05 07:17:19;;;;;;;;;;;;;;;;;;;;;
2022/10/05 07:20:19;;;;;;;34.60;29.40;;;;;;;12.26;71.86;100946.95;108544;1279;22022;-79
2022/10/05 07:23:41;;;;;;;37.30;24.10;;;;;;;12.49;70.78;100949.08;108568;1279;22957;-81
2022/10/05 07:26:55;;;;;;;24.80;16.30;;;;;;;12.66;69.53;100942.35;107483;1287;22477;-80
2022/10/05 07:29:47;;;;;;;18.50;11.90;;;;;;;12.76;69.23;100941.96;107859;1288;23934;-81
2022/10/05 07:32:58;;;;;;;22.10;14.00;;;;;;;12.94;69.05;100939.89;107727;1285;22005;-81
2022/10/05 07:40:08;;;;;;;13.00;8.60;;;;;;;13.38;67.44;100935.43;108187;1285;23765;-80
2022/10/05 07:43:30;;;;;;;13.90;10.50;;;;;;;13.43;66.44;100939.79;108226;1282;25045;-80
2022/10/05 07:47:03;;;;;;;15.40;10.20;;;;;;;13.46;66.40;100934.23;108288;1278;21997;-80
2022/10/05 07:50:07;;;;;;;23.50;13.70;;;;;;;13.49;65.52;100929.90;108311;1276;22897;-80
2022/10/05 07:54:05;;;;;;;23.00;15.40;;;;;;;13.61;65.49;100928.03;108843;1270;24312;-80
2022/10/05 07:57:37;;;;;;;28.90;16.40;;;;;;;13.84;65.80;100926.55;108673;1276;22052;-79
2022/10/05 08:01:24;;;;;;;;;;;;;;;;;;;;;
2022/10/05 08:04:58;;;;;;;;;;;;;;;;;;;;;
2022/10/05 08:08:08;;;;;;;15.80;9.10;;;;;;;14.62;64.63;100923.16;108308;1279;21998;-80
2022/10/05 08:11:52;;;;;;;25.10;12.80;;;;;;;14.93;64.10;100921.58;108394;1280;22001;-78
2022/10/05 08:15:06;;;;;;;;;;;;;;;;;;;;;
2022/10/05 08:18:02;;;;;;;;;;;;;;;15.55;62.12;100912.27;108228;1279;21991;-78
2022/10/05 08:21:05;;;;;;;10.30;6.60;;;;;;;15.60;60.63;100918.69;108063;1280;21994;-77
2022/10/05 08:23:49;;;;;;;;;;;;;;;15.83;60.70;100921.80;107977;1285;24549;-80
2022/10/05 08:27:10;;;;;;;9.90;6.20;;;;;;;16.02;60.44;100923.95;108150;1282;21996;-78
2022/10/05 08:29:51;;;;;;;11.40;7.10;;;;;;;16.32;60.19;100927.86;108081;1282;22002;-82
2022/10/05 08:33:02;;;;;;;10.70;6.20;;;;;;;16.55;58.73;100921.77;108361;1278;22764;-81
2022/10/05 08:36:09;;;;;;;7.80;4.60;;;;;;;16.69;57.83;100919.42;108447;1276;22895;-81
2022/10/05 08:38:49;;;;;;;7.30;4.90;;;;;;;16.77;57.42;100918.41;108615;1275;22024;-80
2022/10/05 08:42:03;;;;;;;7.20;5.10;;;;;;;16.86;56.45;100922.52;108754;1270;24470;-80
2022/10/05 08:45:17;;;;;;;9.50;4.80;;;;;;;16.97;56.17;100922.27;109134;1270;23040;-80
2022/10/05 08:48:53;;;;;;;;;;;;;;;;;;;;;
2022/10/05 08:51:48;;;;;;;8.60;4.10;;;;;;;17.12;56.47;100914.23;109359;1267;22568;-78
2022/10/05 08:54:35;;;;;;;8.40;4.50;;;;;;;17.28;55.72;100914.38;108946;1267;21977;-78
2022/10/05 08:57:42;;;;;;;6.70;4.30;;;;;;;17.33;54.86;100915.49;109480;1261;23059;-78
2022/10/05 09:00:22;;;;;;;7.90;4.80;;;;;;;17.22;54.29;100907.71;110017;1256;21973;-78
2022/10/05 09:04:01;;;;;;;6.50;4.30;;;;;;;17.26;54.49;100902.02;110356;1256;21972;-78
2022/10/05 09:07:00;;;;;;;9.30;5.20;;;;;;;17.25;54.19;100909.45;109686;1262;22099;-79
2022/10/05 09:09:56;;;;;;;7.00;4.20;;;;;;;17.30;54.47;100908.14;109536;1264;23597;-78
2022/10/05 09:13:05;;;;;;;11.30;4.50;;;;;;;17.38;54.38;100907.36;109549;1261;21975;-79
2022/10/05 09:16:22;;;;;;;5.00;3.80;;;;;;;17.42;54.25;100904.12;108781;1270;23592;-80
2022/10/05 09:20:13;;;;;;;4.50;3.30;;;;;;;17.42;54.09;100907.42;108616;1275;24119;-80
2022/10/05 09:24:06;;;;;;;12.20;3.90;;;;;;;17.36;53.71;100904.09;108586;1276;23690;-80
2022/10/05 09:27:47;;;;;;;7.20;5.50;;;;;;;17.28;53.72;100899.10;107715;1285;22008;-81
2022/10/05 09:31:35;;;;;;;6.70;5.00;;;;;;;17.27;53.66;100904.93;107862;1287;23719;-81
2022/10/05 09:35:07;;;;;;;19.10;10.80;;;;;;;17.26;53.81;100906.75;107809;1288;22021;-81
2022/10/05 09:39:07;;;;;;;;;;;;;;;;;;;;;
2022/10/05 09:42:53;;;;;;;5.90;3.50;;;;;;;17.23;53.76;100901.16;107965;1282;21998;-83
2022/10/05 09:46:54;;;;;;;9.80;3.60;;;;;;;17.30;54.24;100903.05;108108;1282;23623;-82
2022/10/05 09:50:49;;;;;;;;;;;;;;;;;;;;;
2022/10/05 10:05:26;;;;;;;6.40;4.60;;;;;;;19.31;48.65;100906.61;107706;1289;549198;-81
2022/10/05 10:09:13;;;;;;;6.80;3.40;;;;;;;19.80;46.58;100902.70;109910;1254;1381968;-82
2022/10/05 10:14:09;;;;;;;;;;;;;;;;;;;;;
2022/10/05 10:18:42;;;;;;;9.40;3.30;;;;;;;19.16;47.90;100885.58;108807;1276;22392;-81
2022/10/05 10:22:43;;;;;;;4.30;2.70;;;;;;;18.82;48.40;100887.77;108457;1280;22006;-82
2022/10/05 10:25:44;;;;;;;6.20;3.40;;;;;;;18.73;49.65;100893.23;108210;1282;23040;-81
2022/10/05 10:29:04;;;;;;;4.60;3.40;;;;;;;18.85;50.42;100896.40;108386;1280;22211;-82
2022/10/05 10:33:10;;;;;;;;;;;;;;;;;;;;;
2022/10/05 10:36:26;;;;;;;6.60;3.30;;;;;;;18.87;49.69;100891.17;108249;1281;22156;-82
2022/10/05 10:40:26;;;;;;;5.80;3.80;;;;;;;18.76;49.58;100884.45;108652;1274;23739;-80
2022/10/05 10:48:03;;;;;;;;;;;;;;;;;;;;;
2022/10/05 10:52:10;;;;;;;9.90;5.50;;;;;;;18.76;50.55;100871.20;108613;1279;23959;-82
2022/10/05 10:56:21;;;;;;;6.90;4.00;;;;;;;18.81;51.00;100873.37;108541;1280;22002;-80
2022/10/05 11:00:17;;;;;;;;;;;;;;;;;;;;;
2022/10/05 11:03:55;;;;;;;7.30;3.40;;;;;;;18.98;50.65;100877.95;108780;1274;22895;-82
2022/10/05 11:07:31;;;;;;;8.10;4.00;;;;;;;19.09;50.61;100877.39;108751;1274;23748;-82
2022/10/05 11:11:21;;;;;;;8.70;3.70;;;;;;;19.17;50.54;100885.16;108649;1276;21978;-82
2022/10/05 11:14:24;;;;;;;7.50;4.10;;;;;;;19.20;50.40;100876.70;108610;1273;23056;-81
2022/10/05 11:18:19;;;;;;;8.30;3.50;;;;;;;19.21;50.27;100863.93;108993;1273;22030;-82
2022/10/05 11:21:58;;;;;;;10.30;4.30;;;;;;;19.13;49.75;100858.64;108772;1274;23596;-80
2022/10/05 11:25:33;;;;;;;6.40;3.50;;;;;;;19.03;49.67;100851.33;108626;1274;22449;-81
2022/10/05 11:29:00;;;;;;;7.00;3.60;;;;;;;18.93;49.75;100840.36;108806;1267;23701;-82
2022/10/05 11:33:29;;;;;;;9.90;2.70;;;;;;;18.80;49.90;100841.52;109134;1267;22457;-81
2022/10/05 11:37:03;;;;;;;;;;;;;;;;;;;;;
2022/10/05 11:41:22;;;;;;;7.10;3.00;;;;;;;18.83;50.37;100831.63;109133;1270;22029;-82
2022/10/05 11:45:58;;;;;;;6.90;2.90;;;;;;;18.77;50.34;100823.73;108684;1273;23152;-82
2022/10/05 11:49:30;;;;;;;7.00;2.10;;;;;;;18.81;50.70;100825.95;108416;1282;22025;-81
2022/10/05 11:53:03;;;;;;;5.70;2.80;;;;;;;18.91;50.49;100817.20;108376;1282;22080;-81
2022/10/05 11:56:09;;;;;;;5.10;2.30;;;;;;;18.89;49.97;100816.98;107748;1288;22878;-82
2022/10/05 11:59:43;;;;;;;4.70;2.40;;;;;;;18.91;50.14;100813.83;107600;1288;21997;-81
2022/10/05 12:03:19;;;;;;;6.70;3.00;;;;;;;18.94;50.28;100808.52;107894;1288;22115;-81
2022/10/05 12:07:16;;;;;;;;;;;;;;;;;;;;;
2022/10/05 12:10:29;;;;;;;12.70;3.40;;;;;;;18.90;49.63;100814.04;107540;1288;22058;-85
2022/10/05 12:13:50;;;;;;;;;;;;;;;;;;;;;
2022/10/05 12:18:09;;;;;;;;;;;;;;;;;;;;;
2022/10/05 12:21:19;;;;;;;6.30;2.40;;;;;;;18.94;49.55;100811.72;109214;1268;22945;-81
2022/10/05 12:25:28;;;;;;;6.00;2.90;;;;;;;18.95;49.48;100805.49;108842;1273;21998;-81
2022/10/05 12:28:29;;;;;;;;;;;;;;;;;;;;;
2022/10/05 12:32:18;;;;;;;5.40;2.90;;;;;;;19.00;49.61;100803.34;108458;1279;21981;-82
2022/10/05 12:35:40;;;;;;;;;;;;;;;;;;;;;
2022/10/05 12:38:48;;;;;;;7.20;3.50;;;;;;;18.95;49.48;100798.77;107494;1290;23687;-80
2022/10/05 12:41:40;;;;;;;6.90;2.80;;;;;;;18.99;49.65;100802.23;107345;1292;22927;-80
2022/10/05 12:45:03;;;;;;;5.90;3.00;;;;;;;18.99;49.67;100798.83;107462;1291;23114;-82
2022/10/05 12:48:28;;;;;;;7.10;2.70;;;;;;;18.96;49.63;100795.88;107682;1285;22481;-80
2022/10/05 12:51:38;;;;;;;8.90;3.40;;;;;;;18.98;49.89;100795.36;107683;1286;23104;-81
2022/10/05 12:54:16;;;;;;;6.70;2.90;;;;;;;19.00;49.84;100794.88;107818;1286;21990;-81
2022/10/05 12:57:41;;;;;;;7.00;2.80;;;;;;;19.05;49.96;100792.61;107978;1285;23125;-81
2022/10/05 13:00:24;;;;;;;5.30;2.70;;;;;;;19.08;49.80;100786.64;107818;1286;23686;-82
2022/10/05 13:03:05;;;;;;;4.80;2.20;;;;;;;19.11;49.86;100782.89;107699;1288;22328;-81
2022/10/05 13:06:07;;;;;;;7.20;2.70;;;;;;;19.10;49.93;100782.43;108019;1282;23092;-80
2022/10/05 13:09:42;;;;;;;;;;;;;;;;;;;;;
2022/10/05 13:12:57;;;;;;;8.60;3.60;;;;;;;19.05;50.06;100779.61;108702;1273;22009;-82
2022/10/05 13:16:17;;;;;;;;;;;;;;;;;;;;;
2022/10/05 13:20:02;;;;;;;9.60;3.10;;;;;;;18.99;50.23;100775.41;108845;1270;22059;-80
2022/10/05 13:23:42;;;;;;;;;;;;;;;;;;;;;
2022/10/05 13:27:01;;;;;;;5.50;2.70;;;;;;;18.86;50.28;100782.29;108460;1274;21944;-81
2022/10/05 13:30:07;;;;;;;;;;;;;;;;;;;;;
2022/10/05 13:33:41;;;;;;;7.20;3.30;;;;;;;18.95;50.54;100777.92;108734;1271;23732;-82
2022/10/05 13:37:45;;;;;;;5.00;3.10;;;;;;;18.97;50.31;100772.20;108904;1273;22775;-80
2022/10/05 13:41:08;;;;;;;6.70;2.60;;;;;;;18.94;49.98;100772.20;108461;1277;22043;-82
2022/10/05 13:44:44;;;;;;;7.20;3.40;;;;;;;18.92;50.16;100766.35;108557;1279;22781;-81
2022/10/05 13:48:02;;;;;;;;;;;;;;;;;;;;;
2022/10/05 13:50:46;;;;;;;5.00;3.40;;;;;;;18.90;50.28;100757.83;108322;1282;23022;-81
2022/10/05 13:53:46;;;;;;;6.10;3.10;;;;;;;18.91;50.29;100758.11;108449;1282;21998;-80
2022/10/05 13:56:58;;;;;;;8.80;4.60;;;;;;;18.88;50.54;100759.17;108421;1281;22667;-83
2022/10/05 14:00:10;;;;;;;9.00;4.70;;;;;;;18.88;50.48;100762.70;108192;1282;23090;-79
2022/10/05 14:04:31;;;;;;;;;;;;;;;;;;;;;
2022/10/05 14:08:24;;;;;;;;;;;;;;;;;;;;;
2022/10/05 14:12:28;;;;;;;7.90;3.00;;;;;;;18.85;51.17;100740.02;108400;1276;22003;-84
2022/10/05 14:15:31;;;;;;;8.20;3.30;;;;;;;18.82;51.59;100733.83;108693;1277;22012;-81
2022/10/05 14:19:06;;;;;;;9.00;3.70;;;;;;;18.82;51.77;100728.20;109038;1271;23817;-81
2022/10/05 14:23:00;;;;;;;;;;;;;;;;;;;;;
2022/10/05 14:26:27;;;;;;;6.30;3.50;;;;;;;18.73;52.35;100714.84;109230;1270;21987;-86
2022/10/05 14:30:00;;;;;;;9.20;4.30;;;;;;;18.72;52.58;100719.64;108626;1279;22927;-80
2022/10/05 14:33:00;;;;;;;;;;;;;;;;;;;;;
2022/10/05 14:36:07;;;;;;;6.50;3.80;;;;;;;18.65;52.76;100718.53;108441;1283;23641;-81
2022/10/05 14:39:28;;;;;;;;;;;;;;;;;;;;;
2022/10/05 14:42:45;;;;;;;4.30;3.20;;;;;;;18.59;53.28;100703.94;108867;1273;22003;-79
2022/10/05 14:45:55;;;;;;;8.50;3.70;;;;;;;18.59;53.66;100711.55;108907;1273;21994;-82
2022/10/05 14:49:24;;;;;;;5.00;4.30;;;;;;;18.57;53.63;100714.16;109930;1265;21979;-85
2022/10/05 14:52:46;;;;;;;;;;;;;;;;;;;;;
2022/10/05 14:55:48;;;;;;;;;;;;;;;;;;;;;
2022/10/05 14:58:46;;;;;;;13.20;5.10;;;;;;;18.44;53.83;100709.36;110769;1257;23635;-80
2022/10/05 15:02:11;;;;;;;15.80;5.80;;;;;;;18.41;53.96;100711.67;110831;1257;22075;-80
2022/10/05 15:05:57;;;;;;;11.70;5.40;;;;;;;18.30;53.96;100709.54;108815;1275;22014;-82
2022/10/05 15:10:18;;;;;;;;;;;;;;;;;;;;;
2022/10/05 15:14:20;;;;;;;10.20;5.40;;;;;;;18.27;54.08;100706.55;110733;1257;22153;-82
2022/10/05 15:17:51;;;;;;;;;;;;;;;18.21;54.27;100706.60;109893;1264;23669;-80
2022/10/05 15:21:07;;;;;;;7.40;6.00;;;;;;;18.08;54.53;100700.34;109214;1270;22059;-85
2022/10/05 15:23:48;;;;;;;11.30;6.80;;;;;;;18.10;54.54;100700.78;108663;1267;1256832;-81
2022/10/05 15:27:17;;;;;;;14.70;6.70;;;;;;;18.08;54.68;100692.65;109020;1273;23077;-80
2022/10/05 15:30:14;;;;;;;10.70;6.90;;;;;;;18.02;54.71;100687.36;108897;1273;22168;-83
2022/10/05 15:33:09;;;;;;;12.70;7.70;;;;;;;17.95;54.78;100686.23;108814;1273;23675;-81
2022/10/05 15:36:01;;;;;;;15.70;6.70;;;;;;;17.84;55.05;100682.66;109362;1265;21975;-82
2022/10/05 15:38:48;;;;;;;10.70;6.30;;;;;;;17.74;55.08;100679.75;109707;1262;23030;-83
2022/10/05 15:41:44;;;;;;;9.60;6.00;;;;;;;17.68;55.17;100678.02;109323;1267;21979;-82
2022/10/05 15:44:35;;;;;;;10.30;6.50;;;;;;;17.59;55.43;100676.48;110017;1254;22195;-83
2022/10/05 15:47:21;;;;;;;11.80;8.10;;;;;;;17.55;55.63;100671.42;110959;1253;21978;-82
2022/10/05 15:50:25;;;;;;;12.10;7.30;;;;;;;17.49;55.76;100669.48;110059;1260;22910;-81
2022/10/05 15:53:09;;;;;;;10.60;7.50;;;;;;;17.42;55.78;100669.77;109754;1260;23723;-82
2022/10/05 15:55:52;;;;;;;15.90;7.30;;;;;;;17.39;56.00;100669.28;110232;1260;22173;-80
2022/10/05 15:58:53;;;;;;;15.40;8.40;;;;;;;17.35;56.06;100663.87;110431;1258;22234;-80
2022/10/05 16:01:50;;;;;;;11.20;6.90;;;;;;;17.29;56.08;100664.74;110617;1254;23162;-81
2022/10/05 16:04:38;;;;;;;14.70;7.70;;;;;;;17.22;56.14;100667.80;110614;1254;21976;-81
2022/10/05 16:10:23;;;;;;;13.40;9.40;;;;;;;17.18;56.42;100669.84;111197;1250;21965;-80
2022/10/05 16:13:33;;;;;;;15.40;8.40;;;;;;;17.15;56.37;100668.63;111079;1250;21967;-81
2022/10/05 16:16:36;;;;;;;13.40;9.20;;;;;;;17.06;56.45;100663.70;110916;1250;23561;-81
2022/10/05 16:19:27;;;;;;;15.30;12.00;;;;;;;16.98;56.60;100664.52;110907;1250;21952;-79
2022/10/05 16:22:39;;;;;;;20.80;16.70;;;;;;;16.91;56.77;100665.08;110872;1250;21976;-82
2022/10/05 16:25:24;;;;;;;19.80;17.50;;;;;;;16.84;57.08;100662.89;110419;1257;21970;-80
2022/10/05 16:28:10;;;;;;;20.40;16.40;;;;;;;16.78;57.24;100664.63;110477;1256;22107;-81
2022/10/05 16:31:00;;;;;;;19.60;15.10;;;;;;;16.75;57.47;100666.00;110724;1256;23714;-79
2022/10/05 16:34:18;;;;;;;17.70;15.60;;;;;;;16.75;57.68;100672.67;110692;1256;22013;-80
2022/10/05 16:36:58;;;;;;;18.00;14.70;;;;;;;16.72;57.63;100673.39;110454;1256;21984;-80
2022/10/05 16:39:48;;;;;;;15.50;12.20;;;;;;;16.68;58.04;100673.06;110481;1256;22014;-82
2022/10/05 16:42:33;;;;;;;19.40;13.50;;;;;;;16.66;58.29;100672.66;109830;1262;23925;-80
2022/10/05 16:45:46;;;;;;;13.90;11.30;;;;;;;16.65;58.19;100672.03;109367;1267;23727;-82
2022/10/05 16:48:26;;;;;;;17.70;11.00;;;;;;;16.56;58.26;100670.78;109374;1267;23788;-84
2022/10/05 16:51:27;;;;;;;26.70;15.30;;;;;;;16.53;58.38;100666.42;109590;1267;23189;-81
2022/10/05 16:54:19;;;;;;;15.70;9.80;;;;;;;16.46;58.54;100668.56;109512;1267;22012;-83
2022/10/05 16:56:55;;;;;;;15.30;10.00;;;;;;;16.41;58.70;100670.44;109339;1266;21995;-84
2022/10/05 16:59:46;;;;;;;19.20;12.20;;;;;;;16.36;58.81;100674.39;109494;1267;21989;-82
2022/10/05 17:03:16;;;;;;;18.60;11.40;;;;;;;16.32;59.03;100671.63;110743;1253;22347;-83
2022/10/05 17:06:02;;;;;;;16.50;11.30;;;;;;;16.27;59.30;100669.10;110314;1257;21959;-83
2022/10/05 17:09:13;;;;;;;19.10;11.10;;;;;;;16.21;59.35;100664.55;110516;1257;22122;-85
2022/10/05 17:12:14;;;;;;;17.40;10.70;;;;;;;16.13;59.45;100666.73;110583;1257;21977;-83
2022/10/05 17:14:59;;;;;;;17.30;10.90;;;;;;;16.07;59.53;100667.27;109805;1262;21965;-84
2022/10/05 17:18:02;;;;;;;17.80;11.30;;;;;;;16.03;59.79;100668.16;109780;1261;23633;-85
2022/10/05 17:20:38;;;;;;;16.90;10.60;;;;;;;16.01;59.80;100667.59;109888;1262;23083;-83
2022/10/05 17:23:55;;;;;;;17.30;10.40;;;;;;;15.98;59.95;100668.77;110116;1262;23091;-84
2022/10/05 17:27:14;;;;;;;20.00;13.30;;;;;;;15.94;60.07;100663.59;109531;1267;21991;-86
2022/10/05 17:29:52;;;;;;;16.40;12.20;;;;;;;15.92;60.19;100659.28;109578;1267;21980;-83
2022/10/05 17:32:38;;;;;;;19.50;11.20;;;;;;;15.93;60.09;100662.42;109550;1261;21972;-83
2022/10/05 17:35:38;;;;;;;15.00;11.20;;;;;;;15.90;60.22;100659.91;110222;1262;23648;-83
2022/10/05 17:38:46;;;;;;;18.40;14.90;;;;;;;15.85;60.23;100656.69;109848;1262;22121;-83
2022/10/05 17:41:35;;;;;;;18.60;12.20;;;;;;;15.80;60.33;100659.96;110521;1256;21961;-84
2022/10/05 17:44:14;;;;;;;19.00;14.00;;;;;;;15.82;60.33;100660.19;110411;1254;21975;-84
2022/10/05 17:46:56;;;;;;;23.10;15.10;;;;;;;15.78;60.41;100658.48;110825;1254;22480;-83
2022/10/05 17:55:33;;;;;;;15.60;11.80;;;;;;;15.63;60.49;100658.21;110300;1258;22827;-82
2022/10/05 17:58:25;;;;;;;19.40;11.80;;;;;;;15.58;60.67;100660.89;110512;1259;23619;-82
2022/10/05 18:00:56;;;;;;;16.10;11.90;;;;;;;15.56;60.90;100660.66;110466;1259;23670;-84
2022/10/05 18:03:49;;;;;;;15.10;12.70;;;;;;;15.56;60.93;100659.82;110739;1253;21981;-84